Goodwell, OK

11:26 PM CDT on May 23, 2015 (GMT -0500)
Perryton Ochiltree County | | Change Station
CLOSE
Current Station
Airport
Location: Perryton,
Elevation: 2917 ft
Nearby Weather Stations

Elev 2917 ft 36.41 °N, 100.75 °W | Updated 11 minutes ago

Overcast
Overcast
58 °F
Feels Like 58 °F
N
20
Wind Variable Wind from SE
Gusts 25 mph

Today
High -- | Low -- °F
--% Chance of Precip.
Yesterday
High -- | Low -- °F
Precip. -- in
6:33 AM 8:53 PM
Waxing Crescent, 35% visible
Pressure 29.87 in
Visibility 3.0 miles
Clouds Overcast 200 ft
Dew Point 57 °F
Humidity 96%
Rainfall 0.00 in
Snow Depth Not available.
UV 0 out of 12
Pollen .70 out of 12
Air Quality Not available.
Flu Activity Sporadic
METAR KPYX 240415Z AUTO 13017G22KT 3SM OVC002 15/14 A2987 RMK AO2 T01450138

More Conditions Fewer Conditions

Pressure 29.87 in
Visibility 3.0 miles
Clouds Overcast 200 ft
Dew Point 57 °F
Humidity 96%
Rainfall 0.00 in
Snow Depth Not available.
UV 0 out of 12
Pollen .70 out of 12
Air Quality Not available.
Flu Activity Sporadic
METAR KPYX 240415Z AUTO 13017G22KT 3SM OVC002 15/14 A2987 RMK AO2 T01450138

More Conditions Fewer Conditions

10-Day Weather Forecast

Almanac

Astronomy

May. 23, 2015 Rise Set
Actual Time
Civil Twilight
Nautical Twilight
Astronomical Twilight
Moon
Length of Visible Light
Length of Day
Tomorrow will be .
, % of the Moon is Illuminated

Today's Extremes

State Highs State Lows

Community

WunderPhotos

Upload Photos

1,823,686 photos uploaded!

WunderBlogs® & News

Nearby

Air Quality

  Air Quality AQ Index Pollutant
Not available.

Snow Depth

Station Depth Elevation

Earthquake Activity

City Distance Mag. Time & Date
Minimum magnitude displayed is 2.5.

Coastal Water Temperatures

Place Temperature

Stations

Nearby Weather Stations

Station Location Temp. Windchill Dew Point Humidity Wind Precip. Elev Updated Type